x

Portage Canal, Mi (pclm4) Weather Station

7:40am - Thu 29th Jan 2015 All times are CST. -6 hours from GMT.

  • Wind
    18mph, 23mph gusts
  • Air Temp 31°f
  • Sea Pressure 1012.5mb
  • Portage Canal, Mi
  • Portage Canal, Mi

More Historic Weather Station data

Upgrade to MSW Pro to gain access to the past 30 days of data for over 8000 Wavebouys and Weather Stations around the globe.

Join Pro

Comparision Forecast

View Surf forecast
   
Thu 01/29 7:40am 18 23 mph 1012.5mb 31f
7:30am 17 25 mph 1012.2mb 31f
7:20am 18 24 mph 1011.9mb 31f
7:10am 18 26 mph 1011.5mb 31f
7:00am 18 25 mph 1011.5mb 31f
6:40am 16 24 mph 1011.2mb 31f
6:30am 17 24 mph 1011.2mb 31f
6:20am 18 24 mph 1010.8mb 31f
6:10am 17 26 mph 1010.8mb 31f
6:00am 20 26 mph 1010.5mb 31f
5:40am 18 24 mph 1010.2mb 31f
5:30am 17 23 mph 1009.8mb 31f
5:20am 21 24 mph 1009.5mb 31f
5:10am 17 22 mph 1009.5mb 31f
5:00am 17 23 mph 1009.5mb 31f
4:40am 15 20 mph 1009.5mb 31f
4:30am 15 20 mph 1009.5mb 31f
4:20am 17 21 mph 1009.1mb 31f
4:10am 14 18 mph 1009.1mb 31f
4:00am 13 16 mph 1009.1mb 31f
3:40am 11 14 mph 1009.1mb 31f
3:30am 9 13 mph 1008.8mb 31f
3:20am 10 17 mph 1008.8mb 31f
3:10am 14 17 mph 1009.1mb 31f
3:00am 16 18 mph 1009.1mb 31f
2:40am 5 9 mph 1009.1mb 29f
2:30am 6 10 mph 1009.1mb 29f
2:20am 3 9 mph 1009.1mb 29f
2:10am 6 9 mph 1009.5mb 29f
2:00am 6 8 mph 1009.5mb 29f
1:40am 3 7 mph 1009.5mb 29f
1:30am 3 6 mph 1009.5mb 29f
1:20am 3 7 mph 1009.8mb 29f
1:10am 3 7 mph 1009.8mb 29f
1:00am 2 7 mph 1009.8mb 29f
12:40am 5 8 mph 1010.2mb 29f
12:30am 5 8 mph 1010.2mb 29f
12:20am 2 6 mph 1010.2mb 29f
12:10am 3 7 mph 1010.5mb 29f
12:00am 3 7 mph 1010.5mb 29f
Wed 01/28 11:40pm 1 8 mph 1010.5mb 30f
11:30pm 5 6 mph 1010.8mb 30f
11:20pm 2 8 mph 1010.8mb 30f
11:10pm 3 8 mph 1010.8mb 31f
11:00pm 3 8 mph 1010.8mb 31f
10:40pm 3 7 mph 1010.8mb 31f
10:30pm 3 8 mph 1011.2mb 31f
10:20pm 3 10 mph 1011.2mb 31f
10:10pm 6 9 mph 1011.2mb 31f
10:00pm 2 8 mph 1011.2mb 31f
9:40pm 6 11 mph 1011.5mb 31f
9:30pm 6 9 mph 1011.5mb 31f
9:20pm 5 9 mph 1011.5mb 32f
9:10pm 5 10 mph 1011.5mb 32f
9:00pm 3 10 mph 1011.9mb 32f
8:40pm 5 8 mph 1011.9mb 32f
8:30pm 3 8 mph 1011.9mb 32f
8:20pm 2 7 mph 1012.2mb 32f
8:10pm 2 6 mph 1012.2mb 32f
8:00pm 2 7 mph 1012.2mb 32f
7:40pm 3 6 mph 1011.9mb 31f
7:30pm 3 7 mph 1011.9mb 32f
7:20pm 2 7 mph 1011.5mb 32f
7:10pm 2 9 mph 1011.2mb 31f
7:00pm 5 8 mph 1011.2mb 31f
6:40pm 2 9 mph 1011.2mb 31f
6:30pm 3 6 mph 1011.5mb 31f
6:20pm 1 6 mph 1011.9mb 31f
6:10pm 2 7 mph 1011.9mb 31f
6:00pm  -  5 mph 1012.2mb 31f
5:40pm 2 6 mph 1012.2mb 31f
5:30pm 5 7 mph 1012.5mb 31f
5:20pm  -  5 mph 1012.5mb 31f
5:10pm 2 6 mph 1012.5mb 31f
5:00pm 2 9 mph 1012.2mb 31f
4:40pm 2 6 mph 1012.9mb 30f
4:30pm 5 6 mph 1012.9mb 31f
4:20pm 1 6 mph 1013.2mb 31f
4:10pm 3 7 mph 1013.2mb 31f
4:00pm 5 7 mph 1013.2mb 31f
3:40pm  -  6 mph 1013.5mb 31f
3:30pm 2 7 mph 1013.5mb 31f
3:20pm  -  9 mph 1013.5mb 31f
3:10pm 5 9 mph 1013.5mb 31f
3:00pm 2 9 mph 1013.5mb 31f
2:40pm 3 7 mph 1013.9mb 31f
2:30pm 3 8 mph 1013.9mb 31f
1:40pm 3 9 mph 1014.9mb 31f
1:30pm 5 10 mph 1014.9mb 30f
1:20pm 2 7 mph 1015.6mb 30f
1:10pm 6 11 mph 1015.6mb 30f
1:00pm 2 5 mph 1015.9mb 30f
12:40pm 3 9 mph 1016.3mb 30f
12:30pm 6 10 mph 1016.3mb 30f
12:20pm 3 8 mph 1016.6mb 30f
12:10pm  -  8 mph 1016.9mb 30f
12:00pm 2 7 mph 1016.9mb 30f
11:40am 2 7 mph 1017.6mb 30f
11:30am 3 8 mph 1017.6mb 30f
11:20am 2 6 mph 1017.6mb 30f
11:10am 5 8 mph 1017.6mb 29f
11:00am 5 8 mph 1017.9mb 29f
10:40am 2 11 mph 1018.3mb 28f
10:30am 2 10 mph 1018.3mb 28f
10:20am 5 10 mph 1019mb 28f
10:10am 5 14 mph 1019mb 28f
10:00am 9 17 mph 1019mb 28f
9:40am 6 14 mph 1019.3mb 27f
9:30am 7 14 mph 1019.6mb 27f
9:20am 6 13 mph 1020mb 27f
9:10am 7 15 mph 1020mb 27f
9:00am 3 10 mph 1020mb 26f
8:40am 5 11 mph 1020.3mb 26f
8:30am 3 9 mph 1020.3mb 26f
8:20am 3 13 mph 1020.3mb 26f
8:10am 7 13 mph 1020.3mb 25f
8:00am 7 11 mph 1020mb 25f
7:50am 5 10 mph 1020mb 25f
7:40am 6 13 mph 1020mb 25f
7:30am 5 11 mph 1020mb 25f
7:20am 5 10 mph 1020.3mb 24f
7:10am 6 10 mph 1020.3mb 24f
7:00am 5 9 mph 1020.7mb 24f
6:50am 6 9 mph 1020.7mb 24f
6:40am 7 10 mph 1020.7mb 24f
6:30am 5 11 mph 1020.7mb 24f
6:20am 5 10 mph 1021mb 24f
6:10am 5 10 mph 1020.7mb 24f
6:00am 5 10 mph 1021mb 24f
5:50am 5 9 mph 1021mb 24f
5:40am 5 9 mph 1021mb 25f
5:30am 3 8 mph 1021mb 25f
5:20am 3 8 mph 1021mb 25f
5:10am 5 8 mph 1021mb 25f
5:00am 6 8 mph 1021mb 25f
4:50am 5 9 mph 1021mb 25f
4:40am 3 7 mph 1021mb 25f
4:30am 5 7 mph 1021mb 26f
4:20am 3 8 mph 1021.3mb 26f
4:10am 3 8 mph 1021.3mb 26f
4:00am 3 7 mph 1021.7mb 26f
3:50am 5 8 mph 1021.3mb 26f
3:40am 5 7 mph 1021.3mb 26f
3:30am 2 5 mph 1021.7mb 26f
3:20am 3 6 mph 1021.7mb 26f
3:10am 6 8 mph 1021.3mb 26f
3:00am 5 8 mph 1021.7mb 26f
2:50am 3 8 mph 1021.7mb 26f
2:40am 3 8 mph 1021.7mb 26f
2:30am 5 8 mph 1021.7mb 26f
2:20am 3 7 mph 1021.7mb 26f
2:10am 3 5 mph 1022mb 26f
2:00am  -  5 mph 1022.4mb 26f
1:50am 2 6 mph 1022mb 26f
1:40am 2 6 mph 1022.4mb 26f
1:30am 3 7 mph 1022mb 26f
1:20am 3 7 mph 1022mb 27f
1:10am 2 8 mph 1022mb 26f
1:00am 3 6 mph 1022.4mb 26f
12:50am 3 6 mph 1022.7mb 26f
12:40am 2 6 mph 1022.4mb 26f
12:30am 3 7 mph 1022.4mb 26f
12:20am 3 7 mph 1022.4mb 26f
12:10am 3 7 mph 1022.7mb 26f
12:00am 3 7 mph 1022.4mb 26f
Tue 01/27 11:50pm 3 7 mph 1022.4mb 26f
11:40pm  -  8 mph 1022.4mb 26f
11:30pm 3 7 mph 1022.4mb 26f
11:20pm 5 10 mph 1022.4mb 26f
11:10pm 5 9 mph 1022.4mb 26f
11:00pm 5 8 mph 1022.7mb 26f
10:50pm 3 7 mph 1022.7mb 26f
10:40pm 3 8 mph 1022.7mb 26f
10:30pm 3 7 mph 1022.7mb 26f
10:20pm 5 8 mph 1022.7mb 26f
10:10pm 5 7 mph 1022.7mb 26f
10:00pm 2 8 mph 1022.4mb 26f
9:50pm 3 7 mph 1022.7mb 26f
9:40pm 3 7 mph 1022.4mb 26f
9:30pm 5 9 mph 1022.4mb 26f
9:20pm 3 9 mph 1022.7mb 26f
9:10pm 5 9 mph 1022.4mb 26f
9:00pm 3 6 mph 1022.7mb 26f
8:50pm 3 7 mph 1022.7mb 26f
8:40pm 3 7 mph 1022.4mb 26f
8:30pm  -  6 mph 1022mb 26f
8:20pm  -  7 mph 1022mb 26f
8:10pm 3 8 mph 1022mb 26f
8:00pm 3 8 mph 1022.4mb 26f
7:50pm 5 7 mph 1022.7mb 26f
7:40pm 3 7 mph 1022.4mb 26f
7:30pm 3 6 mph 1022.7mb 26f
7:20pm 3 8 mph 1022.7mb 26f
7:10pm 3 7 mph 1022.7mb 26f
7:00pm 3 8 mph 1022.7mb 26f
6:50pm 5 8 mph 1022.7mb 26f
6:40pm 3 7 mph 1023mb 26f
6:30pm 3 6 mph 1023mb 26f
6:20pm 2 5 mph 1023.4mb 26f
6:10pm 3 6 mph 1023mb 26f
6:00pm 3 7 mph 1023mb 27f
5:50pm 2 5 mph 1023mb 27f
5:40pm 2 6 mph 1023mb 27f
5:30pm 2 3 mph 1023mb 27f
5:20pm 3 5 mph 1023.4mb 27f
5:10pm 5 8 mph 1023.4mb 27f
5:00pm 6 8 mph 1023mb 27f
4:50pm 3 6 mph 1023mb 27f
4:40pm 2 8 mph 1023.4mb 27f
4:30pm 5 7 mph 1023mb 27f
4:20pm 2 5 mph 1023mb 27f
4:10pm 3 7 mph 1023mb 27f
4:00pm 3 6 mph 1023mb 28f
3:50pm 3 7 mph 1023mb 28f
3:40pm 3 7 mph 1023mb 28f
3:30pm 2 8 mph 1023mb 28f
3:20pm 3 7 mph 1023mb 28f
3:10pm 3 8 mph 1022.7mb 28f
3:00pm 3 9 mph 1022.7mb 28f
2:50pm 3 9 mph 1023mb 28f
2:40pm 3 8 mph 1023mb 28f
2:30pm 3 8 mph 1022.7mb 28f
2:20pm 3 9 mph 1022.7mb 28f
2:10pm 3 10 mph 1022.7mb 28f
2:00pm 6 11 mph 1022.7mb 28f
1:50pm 5 11 mph 1022.7mb 28f
1:40pm 6 10 mph 1023mb 29f
1:30pm 7 11 mph 1022.7mb 30f
1:20pm 5 9 mph 1022.7mb 30f
1:10pm 5 8 mph 1022.7mb 30f
1:00pm 3 9 mph 1023mb 30f
12:50pm 2 7 mph 1022.7mb 30f
12:40pm 3 9 mph 1023mb 31f
12:30pm 5 9 mph 1023mb 29f
12:20pm 3 8 mph 1023mb 29f
12:10pm 2 8 mph 1023.4mb 30f
12:00pm 2 8 mph 1023.4mb 30f
11:50am 5 8 mph 1023.4mb 29f
11:40am 3 9 mph 1023mb 29f
11:30am 5 9 mph 1023mb 29f
11:20am 6 9 mph 1023mb 28f
11:10am 6 8 mph 1023mb 28f
11:00am 7 9 mph 1023mb 28f
10:50am 3 9 mph 1023mb 27f
10:40am 7 10 mph 1023mb 27f
10:30am 5 10 mph 1023mb 27f
10:20am 5 8 mph 1023mb 26f
10:10am 6 9 mph 1023mb 25f
10:00am 5 9 mph 1023mb 25f
9:50am 6 9 mph 1022.7mb 25f
9:40am 5 8 mph 1022.4mb 25f
9:30am 3 10 mph 1022.4mb 24f
9:20am 5 11 mph 1022.4mb 23f
9:10am 5 8 mph 1022mb 23f
9:00am 3 10 mph 1022mb 22f
8:50am 6 10 mph 1022mb 21f
8:40am 5 10 mph 1022mb 20f
8:30am 5 9 mph 1022mb 19f
8:20am 5 9 mph 1021.7mb 19f
8:10am 5 8 mph 1021.7mb 18f
8:00am 5 9 mph 1021.7mb 18f
7:50am 5 10 mph 1021.7mb 18f
7:40am 6 10 mph 1021.3mb 19f
7:30am 5 9 mph 1021.3mb 19f
7:20am 5 9 mph 1021mb 19f
7:10am 7 11 mph 1021mb 19f
7:00am 6 9 mph 1021.3mb 19f
6:50am 5 8 mph 1021.3mb 19f
6:40am 6 10 mph 1021.3mb 18f
6:30am 5 8 mph 1021.3mb 18f
6:20am 2 8 mph 1021mb 19f
6:10am 5 8 mph 1021mb 18f
6:00am 2 7 mph 1021mb 19f
5:50am 3 7 mph 1020.7mb 20f
5:40am 3 8 mph 1020.3mb 20f
5:30am 3 7 mph 1020.3mb 21f
5:20am 3 8 mph 1020.3mb 22f
5:10am 3 8 mph 1020.3mb 22f
5:00am 3 6 mph 1020.3mb 22f
4:50am 3 8 mph 1020mb 22f
4:40am 3 8 mph 1020mb 22f
4:30am 2 7 mph 1020mb 22f
4:20am 2 7 mph 1020mb 22f
4:10am 3 9 mph 1019.6mb 22f
4:00am 3 7 mph 1019.6mb 22f
3:50am 5 8 mph 1019.6mb 22f
3:40am 5 10 mph 1019.6mb 22f
3:30am 6 9 mph 1019.3mb 22f
3:20am 3 9 mph 1019mb 22f
3:10am 3 8 mph 1019mb 21f
3:00am 3 9 mph 1019mb 21f
2:50am 6 9 mph 1018.6mb 21f
2:40am 3 9 mph 1018.6mb 21f
2:30am 3 9 mph 1018.6mb 20f
2:20am 2 8 mph 1018.6mb 21f
2:10am 5 10 mph 1018.6mb 21f
2:00am 5 10 mph 1018.6mb 21f
1:50am 3 10 mph 1018.3mb 21f
1:40am 5 9 mph 1018.3mb 21f
1:30am 5 9 mph 1017.9mb 21f
1:20am 6 10 mph 1017.9mb 21f
1:10am 3 10 mph 1017.6mb 21f
1:00am 5 10 mph 1017.6mb 21f
12:50am 5 10 mph 1017.6mb 21f
12:40am 5 14 mph 1017.3mb 21f
12:30am 5 10 mph 1016.9mb 21f
12:20am 5 11 mph 1016.9mb 21f
12:10am 6 9 mph 1016.9mb 22f
12:00am 5 10 mph 1016.6mb 21f
Mon 01/26 11:50pm 3 8 mph 1016.6mb 22f
11:40pm 5 10 mph 1016.3mb 21f
11:30pm 6 9 mph 1016.3mb 21f
11:20pm 5 9 mph 1016.3mb 21f
11:10pm 6 9 mph 1016.3mb 21f
11:00pm 5 8 mph 1015.9mb 21f
10:50pm 5 9 mph 1015.6mb 22f
10:40pm 3 10 mph 1015.6mb 22f
10:30pm 2 8 mph 1015.6mb 22f
10:20pm 5 8 mph 1015.6mb 22f
10:10pm 5 9 mph 1015.2mb 22f
10:00pm 3 11 mph 1015.2mb 22f
9:50pm 5 11 mph 1015.2mb 22f
9:40pm 3 8 mph 1015.2mb 22f
9:30pm 3 8 mph 1015.2mb 22f
9:20pm 3 9 mph 1014.9mb 23f
9:10pm 6 9 mph 1014.9mb 23f
9:00pm 3 9 mph 1014.6mb 23f
8:50pm 3 9 mph 1014.6mb 23f
8:40pm 3 9 mph 1014.2mb 23f
8:30pm 5 10 mph 1014.2mb 23f
8:20pm 2 9 mph 1013.9mb 23f
8:10pm 6 10 mph 1013.9mb 23f
8:00pm 2 9 mph 1013.9mb 23f
7:50pm 5 10 mph 1013.5mb 22f
7:40pm 2 8 mph 1013.9mb 22f
7:30pm 2 8 mph 1013.9mb 22f
7:20pm 3 5 mph 1013.9mb 22f
7:10pm 2 5 mph 1013.5mb 22f
7:00pm 2 6 mph 1013.5mb 22f
6:50pm  -  3 mph 1013.5mb 22f
6:40pm 1 5 mph 1013.2mb 22f
6:30pm 2 5 mph 1013.2mb 22f
6:20pm 2 6 mph 1012.9mb 22f
6:10pm 2 5 mph 1012.9mb 22f
6:00pm 2 6 mph 1012.5mb 22f
5:50pm 1 5 mph 1012.5mb 23f
5:40pm 3 5 mph 1012.5mb 23f
5:30pm  -  6 mph 1012.2mb 23f
5:20pm 2 8 mph 1012.2mb 24f
5:10pm 2 9 mph 1011.9mb 24f
5:00pm 2 7 mph 1011.5mb 24f
4:50pm 2 8 mph 1011.2mb 24f
4:40pm 8 11 mph 1010.8mb 24f
4:30pm 1 8 mph 1010.8mb 24f
4:20pm 3 6 mph 1011.2mb 24f
4:10pm 1 7 mph 1011.2mb 24f
4:00pm 1 7 mph 1010.8mb 24f
3:50pm 2 9 mph 1010.8mb 25f
3:40pm 3 11 mph 1010.2mb 25f
3:30pm 2 10 mph 1009.8mb 24f
3:20pm 6 14 mph 1009.5mb 24f
3:10pm 5 16 mph 1009.1mb 24f
3:00pm 7 15 mph 1009.1mb 24f
2:50pm 8 16 mph 1009.1mb 24f
2:40pm 5 14 mph 1009.1mb 24f
2:30pm 9 17 mph 1009.1mb 24f
2:20pm 6 16 mph 1009.1mb 24f
2:10pm 6 13 mph 1008.8mb 24f
2:00pm 5 16 mph 1008.8mb 24f
1:50pm 6 17 mph 1008.5mb 24f
1:40pm 8 20 mph 1008.5mb 24f
1:30pm 8 16 mph 1008.5mb 24f
1:20pm 6 20 mph 1008.1mb 23f
1:10pm 8 15 mph 1008.1mb 24f
1:00pm 7 15 mph 1008.1mb 23f
12:50pm 8 17 mph 1008.5mb 23f
12:40pm 6 14 mph 1008.5mb 23f
12:30pm 7 17 mph 1008.5mb 23f
12:20pm 8 17 mph 1008.5mb 22f
12:10pm 8 20 mph 1008.5mb 22f
12:00pm 8 16 mph 1008.5mb 22f
11:50am 9 18 mph 1008.8mb 21f
11:40am 9 24 mph 1008.8mb 21f
11:30am 7 18 mph 1009.1mb 21f
11:20am 7 18 mph 1009.1mb 21f
11:10am 10 18 mph 1009.1mb 20f
11:00am 9 16 mph 1009.5mb 20f
10:50am 7 18 mph 1009.5mb 20f
10:40am 8 20 mph 1009.5mb 19f
10:30am 6 14 mph 1009.8mb 19f
10:20am 6 17 mph 1009.5mb 18f
10:10am 6 15 mph 1009.8mb 18f
10:00am 6 20 mph 1009.8mb 17f
9:50am 8 16 mph 1009.8mb 17f
9:40am 7 20 mph 1009.8mb 17f
9:30am 5 16 mph 1009.8mb 18f
9:20am 9 22 mph 1009.8mb 17f
9:10am 9 16 mph 1009.5mb 17f
9:00am 9 22 mph 1009.5mb 17f
8:50am 10 18 mph 1009.5mb 17f
8:40am 6 15 mph 1009.8mb 17f
8:30am 6 15 mph 1009.8mb 16f
8:20am 7 15 mph 1009.8mb 16f
8:10am 7 13 mph 1009.8mb 16f
8:00am 8 14 mph 1009.8mb 16f
7:50am 9 16 mph 1009.8mb 16f
7:40am 5 13 mph 1009.8mb 15f
7:30am 6 13 mph 1010.2mb 15f
7:20am 7 16 mph 1010.2mb 15f
7:10am 7 15 mph 1010.2mb 15f
7:00am 7 13 mph 1010.5mb 15f
6:50am 7 16 mph 1010.5mb 15f
6:40am 6 14 mph 1010.8mb 15f
6:30am 6 14 mph 1010.8mb 15f
6:20am 7 15 mph 1010.8mb 15f
6:10am 8 15 mph 1010.8mb 15f
6:00am 6 15 mph 1011.2mb 15f
5:50am 6 16 mph 1011.2mb 14f
5:40am 8 16 mph 1011.2mb 14f
5:30am 8 15 mph 1011.2mb 14f
5:20am 7 20 mph 1011.5mb 14f
5:10am 7 15 mph 1011.5mb 14f
5:00am 7 17 mph 1011.5mb 14f
4:50am 7 17 mph 1011.5mb 14f
4:40am 8 16 mph 1011.9mb 14f
4:30am 9 15 mph 1012.2mb 15f
4:20am 6 15 mph 1012.5mb 15f
4:10am 7 13 mph 1012.5mb 15f
4:00am 6 13 mph 1012.9mb 15f
3:50am 5 14 mph 1012.9mb 15f
3:40am 6 14 mph 1013.2mb 15f
3:30am 7 13 mph 1013.2mb 15f
3:20am 8 14 mph 1013.2mb 15f
3:10am 6 16 mph 1013.2mb 15f
3:00am 7 15 mph 1013.5mb 15f
2:50am 7 14 mph 1013.5mb 15f
2:40am 8 16 mph 1013.5mb 15f
2:30am 6 13 mph 1013.5mb 15f
2:20am 7 13 mph 1013.5mb 15f
2:10am 6 17 mph 1013.9mb 14f
2:00am 6 14 mph 1013.9mb 14f
1:50am 6 13 mph 1013.9mb 14f
1:40am 6 16 mph 1014.2mb 14f
1:30am 8 17 mph 1014.2mb 14f
1:20am 6 16 mph 1014.6mb 14f
1:10am 6 17 mph 1014.6mb 14f
1:00am 8 17 mph 1014.6mb 14f
12:50am 9 16 mph 1014.6mb 14f
12:40am 8 15 mph 1014.9mb 14f
12:30am 7 14 mph 1015.2mb 14f
12:20am 7 15 mph 1015.2mb 14f
12:10am 8 16 mph 1015.2mb 14f
12:00am 7 13 mph 1015.2mb 14f
Sun 01/25 11:50pm 8 13 mph 1015.6mb 14f
11:40pm 5 14 mph 1015.9mb 14f
11:30pm 6 14 mph 1015.9mb 14f
11:20pm 6 15 mph 1015.9mb 14f
11:10pm 3 15 mph 1015.9mb 14f
11:00pm 3 15 mph 1015.9mb 15f
10:50pm 9 16 mph 1015.9mb 15f
10:40pm 6 16 mph 1016.3mb 15f
10:30pm 7 15 mph 1016.3mb 15f
10:20pm 5 11 mph 1016.6mb 14f
10:10pm 3 10 mph 1016.9mb 14f
10:00pm 3 8 mph 1017.3mb 13f
9:50pm 3 9 mph 1017.3mb 13f
9:40pm 5 8 mph 1017.3mb 12f
9:30pm 1 6 mph 1017.3mb 11f
9:20pm 2 8 mph 1017.3mb 12f
9:10pm 5 8 mph 1017.3mb 11f
9:00pm 2 6 mph 1017.3mb 11f
8:50pm 2 6 mph 1017.3mb 11f
8:40pm 3 7 mph 1017.6mb 11f
8:30pm 3 6 mph 1017.6mb 10f
8:20pm 3 7 mph 1018.3mb 10f
8:10pm 3 7 mph 1018.6mb 10f
8:00pm 5 8 mph 1019mb 10f
7:50pm 3 7 mph 1019.3mb 9f
7:40pm 3 6 mph 1019.3mb 8f
7:30pm 3 6 mph 1020mb 9f
7:20pm 3 6 mph 1020mb 9f
7:10pm 5 6 mph 1020.3mb 9f
7:00pm 5
mph
1020.3mb 8f
6:50pm 2 3 mph 1020.7mb 9f
6:40pm 3 5 mph 1020.3mb 11f
6:30pm 3 5 mph 1020mb 11f
6:20pm 3 5 mph 1020mb 10f
6:10pm 3 5 mph 1019.6mb 10f
6:00pm 1 3 mph 1019.6mb 11f
5:50pm 2 3 mph 1019.6mb 12f
5:40pm 2 3 mph 1019.6mb 12f
5:30pm 2 3 mph 1019.3mb 12f
5:20pm 2 3 mph 1019.3mb 12f
5:10pm 2 3 mph 1019.3mb 13f
5:00pm 3 5 mph 1019mb 14f
4:50pm 2
mph
1019mb 14f
4:40pm  -  2 mph 1019mb 15f
4:30pm  -  3 mph 1019mb 16f
4:20pm 1 5 mph 1019mb 17f
4:10pm 2 5 mph 1019mb 18f
4:00pm 3 6 mph 1019.3mb 19f
3:50pm 2 3 mph 1019.3mb 22f
3:40pm 2 3 mph 1019.3mb 22f
3:30pm 1 3 mph 1019.3mb 23f
3:20pm 3 5 mph 1019.6mb 20f
3:10pm 2 3 mph 1019.6mb 22f
3:00pm 2 5 mph 1019.6mb 20f
2:50pm 3 6 mph 1020mb 20f
2:40pm 3 5 mph 1019.6mb 20f